sensor_id;sensor_type;location;lat;lon;timestamp;noise_LAeq;noise_LA_min;noise_LA_max;noise_LA01;noise_LA95
67300;Laerm;57658;51.436;5.980;2024-01-27T00:00:00;39.77;37.83;41.96;;
67300;Laerm;57658;51.436;5.980;2024-01-27T00:00:11;41.44;37.45;46.06;;
67300;Laerm;57658;51.436;5.980;2024-01-27T00:00:21;58.24;42.51;66.40;;
67300;Laerm;57658;51.436;5.980;2024-01-27T00:00:32;50.95;37.78;60.25;;
67300;Laerm;57658;51.436;5.980;2024-01-27T00:00:42;38.45;35.55;42.42;;
67300;Laerm;57658;51.436;5.980;2024-01-27T00:00:52;35.18;32.67;37.84;;
67300;Laerm;57658;51.436;5.980;2024-01-27T00:01:02;33.20;31.54;34.83;;
67300;Laerm;57658;51.436;5.980;2024-01-27T00:01:13;34.35;32.12;37.07;;
67300;Laerm;57658;51.436;5.980;2024-01-27T00:01:23;33.50;31.49;42.98;;
67300;Laerm;57658;51.436;5.980;2024-01-27T00:01:33;32.90;31.35;39.78;;
67300;Laerm;57658;51.436;5.980;2024-01-27T00:01:44;32.91;31.48;36.00;;
67300;Laerm;57658;51.436;5.980;2024-01-27T00:01:54;33.67;32.09;39.54;;
67300;Laerm;57658;51.436;5.980;2024-01-27T00:02:04;33.57;31.58;36.25;;
67300;Laerm;57658;51.436;5.980;2024-01-27T00:02:14;38.87;33.04;44.71;;
67300;Laerm;57658;51.436;5.980;2024-01-27T00:02:25;45.38;38.64;49.96;;
67300;Laerm;57658;51.436;5.980;2024-01-27T00:02:35;44.57;33.87;52.54;;
67300;Laerm;57658;51.436;5.980;2024-01-27T00:02:46;58.18;49.94;66.93;;
67300;Laerm;57658;51.436;5.980;2024-01-27T00:02:56;48.20;44.71;56.54;;
67300;Laerm;57658;51.436;5.980;2024-01-27T00:03:06;48.89;44.17;52.28;;
67300;Laerm;57658;51.436;5.980;2024-01-27T00:03:16;43.20;37.59;47.40;;
67300;Laerm;57658;51.436;5.980;2024-01-27T00:03:27;41.67;36.17;46.31;;
67300;Laerm;57658;51.436;5.980;2024-01-27T00:03:37;37.34;33.40;40.45;;
67300;Laerm;57658;51.436;5.980;2024-01-27T00:03:47;35.54;32.62;38.67;;
67300;Laerm;57658;51.436;5.980;2024-01-27T00:03:58;34.55;32.17;37.68;;
67300;Laerm;57658;51.436;5.980;2024-01-27T00:04:08;34.17;32.56;37.73;;
67300;Laerm;57658;51.436;5.980;2024-01-27T00:04:19;33.75;31.15;37.10;;
67300;Laerm;57658;51.436;5.980;2024-01-27T00:04:29;33.55;31.19;37.31;;
67300;Laerm;57658;51.436;5.980;2024-01-27T00:04:39;34.52;31.13;38.29;;
67300;Laerm;57658;51.436;5.980;2024-01-27T00:04:49;51.34;37.51;57.37;;
67300;Laerm;57658;51.436;5.980;2024-01-27T00:05:00;62.43;48.07;68.04;;
67300;Laerm;57658;51.436;5.980;2024-01-27T00:05:10;40.74;33.28;50.30;;
67300;Laerm;57658;51.436;5.980;2024-01-27T00:05:21;32.72;31.13;34.56;;
67300;Laerm;57658;51.436;5.980;2024-01-27T00:05:31;33.12;31.29;37.87;;
67300;Laerm;57658;51.436;5.980;2024-01-27T00:05:41;33.45;31.74;35.55;;
67300;Laerm;57658;51.436;5.980;2024-01-27T00:05:51;33.10;31.04;35.70;;
67300;Laerm;57658;51.436;5.980;2024-01-27T00:06:02;32.85;31.10;35.84;;
67300;Laerm;57658;51.436;5.980;2024-01-27T00:06:13;33.26;31.50;35.60;;
67300;Laerm;57658;51.436;5.980;2024-01-27T00:06:23;32.54;31.39;35.10;;
67300;Laerm;57658;51.436;5.980;2024-01-27T00:06:33;32.26;30.70;34.33;;
67300;Laerm;57658;51.436;5.980;2024-01-27T00:06:44;31.94;30.66;33.49;;
67300;Laerm;57658;51.436;5.980;2024-01-27T00:06:54;32.28;30.65;39.34;;
67300;Laerm;57658;51.436;5.980;2024-01-27T00:07:04;37.20;31.27;44.17;;
67300;Laerm;57658;51.436;5.980;2024-01-27T00:07:14;50.16;43.30;53.47;;
67300;Laerm;57658;51.436;5.980;2024-01-27T00:07:25;52.66;45.51;56.46;;
67300;Laerm;57658;51.436;5.980;2024-01-27T00:07:37;48.38;41.78;54.93;;
67300;Laerm;57658;51.436;5.980;2024-01-27T00:07:47;38.18;33.93;44.48;;
67300;Laerm;57658;51.436;5.980;2024-01-27T00:07:57;37.91;35.23;39.86;;
67300;Laerm;57658;51.436;5.980;2024-01-27T00:08:08;34.52;31.48;37.19;;
67300;Laerm;57658;51.436;5.980;2024-01-27T00:08:18;33.81;31.70;37.42;;
67300;Laerm;57658;51.436;5.980;2024-01-27T00:08:28;34.73;32.28;40.26;;
67300;Laerm;57658;51.436;5.980;2024-01-27T00:08:39;32.89;31.05;35.33;;
67300;Laerm;57658;51.436;5.980;2024-01-27T00:08:49;32.34;31.26;33.62;;
67300;Laerm;57658;51.436;5.980;2024-01-27T00:08:59;32.35;31.11;33.97;;
67300;Laerm;57658;51.436;5.980;2024-01-27T00:09:10;33.43;31.31;37.77;;
67300;Laerm;57658;51.436;5.980;2024-01-27T00:09:20;32.34;30.88;34.01;;
67300;Laerm;57658;51.436;5.980;2024-01-27T00:09:30;32.28;30.81;33.53;;
67300;Laerm;57658;51.436;5.980;2024-01-27T00:09:41;32.16;30.81;34.64;;
67300;Laerm;57658;51.436;5.980;2024-01-27T00:09:51;32.01;30.43;33.32;;
67300;Laerm;57658;51.436;5.980;2024-01-27T00:10:02;31.95;30.45;33.42;;
67300;Laerm;57658;51.436;5.980;2024-01-27T00:10:12;31.92;30.65;33.21;;
67300;Laerm;57658;51.436;5.980;2024-01-27T00:10:22;32.32;31.05;34.01;;
67300;Laerm;57658;51.436;5.980;2024-01-27T00:10:33;33.54;31.64;35.57;;
67300;Laerm;57658;51.436;5.980;2024-01-27T00:10:43;32.41;31.01;33.73;;
67300;Laerm;57658;51.436;5.980;2024-01-27T00:10:56;36.15;31.21;44.63;;
67300;Laerm;57658;51.436;5.980;2024-01-27T00:11:06;50.53;36.23;55.69;;
67300;Laerm;57658;51.436;5.980;2024-01-27T00:11:16;60.75;48.61;64.40;;
67300;Laerm;57658;51.436;5.980;2024-01-27T00:11:26;46.29;41.42;50.31;;
67300;Laerm;57658;51.436;5.980;2024-01-27T00:11:37;43.09;40.48;45.55;;
67300;Laerm;57658;51.436;5.980;2024-01-27T00:11:47;42.72;40.07;45.97;;
67300;Laerm;57658;51.436;5.980;2024-01-27T00:11:57;53.21;41.48;61.49;;
67300;Laerm;57658;51.436;5.980;2024-01-27T00:12:08;61.77;48.75;66.86;;
67300;Laerm;57658;51.436;5.980;2024-01-27T00:12:18;47.05;44.39;49.80;;
67300;Laerm;57658;51.436;5.980;2024-01-27T00:12:28;44.26;36.11;48.42;;
67300;Laerm;57658;51.436;5.980;2024-01-27T00:12:39;37.83;35.74;40.01;;
67300;Laerm;57658;51.436;5.980;2024-01-27T00:12:50;37.97;35.35;41.94;;
67300;Laerm;57658;51.436;5.980;2024-01-27T00:13:00;35.23;33.31;37.68;;
67300;Laerm;57658;51.436;5.980;2024-01-27T00:13:10;34.50;32.09;37.31;;
67300;Laerm;57658;51.436;5.980;2024-01-27T00:13:21;33.65;32.15;35.65;;
67300;Laerm;57658;51.436;5.980;2024-01-27T00:13:31;35.88;31.33;49.07;;
67300;Laerm;57658;51.436;5.980;2024-01-27T00:13:41;34.25;31.60;42.89;;
67300;Laerm;57658;51.436;5.980;2024-01-27T00:13:52;32.96;30.87;37.89;;
67300;Laerm;57658;51.436;5.980;2024-01-27T00:14:02;32.70;31.28;34.42;;
67300;Laerm;57658;51.436;5.980;2024-01-27T00:14:13;32.66;31.23;34.33;;
67300;Laerm;57658;51.436;5.980;2024-01-27T00:14:23;32.86;30.84;34.37;;
67300;Laerm;57658;51.436;5.980;2024-01-27T00:14:33;32.71;31.14;35.24;;
67300;Laerm;57658;51.436;5.980;2024-01-27T00:14:44;32.40;31.07;33.71;;
67300;Laerm;57658;51.436;5.980;2024-01-27T00:14:54;32.79;31.02;34.72;;
67300;Laerm;57658;51.436;5.980;2024-01-27T00:15:06;32.29;30.76;33.85;;
67300;Laerm;57658;51.436;5.980;2024-01-27T00:15:16;32.61;30.71;34.29;;
67300;Laerm;57658;51.436;5.980;2024-01-27T00:15:27;32.63;31.22;33.84;;
67300;Laerm;57658;51.436;5.980;2024-01-27T00:15:37;32.88;31.28;34.65;;
67300;Laerm;57658;51.436;5.980;2024-01-27T00:15:47;33.13;31.50;35.25;;
67300;Laerm;57658;51.436;5.980;2024-01-27T00:15:58;33.36;31.47;39.45;;
67300;Laerm;57658;51.436;5.980;2024-01-27T00:16:08;33.89;31.59;47.31;;
67300;Laerm;57658;51.436;5.980;2024-01-27T00:16:19;34.80;31.87;40.62;;
67300;Laerm;57658;51.436;5.980;2024-01-27T00:16:29;35.02;32.39;42.14;;
67300;Laerm;57658;51.436;5.980;2024-01-27T00:16:39;36.03;32.25;43.86;;
67300;Laerm;57658;51.436;5.980;2024-01-27T00:16:49;48.60;39.45;53.20;;
67300;Laerm;57658;51.436;5.980;2024-01-27T00:17:00;48.26;42.23;51.70;;
67300;Laerm;57658;51.436;5.980;2024-01-27T00:17:10;42.76;36.98;46.54;;
67300;Laerm;57658;51.436;5.980;2024-01-27T00:17:20;36.08;33.26;39.39;;
67300;Laerm;57658;51.436;5.980;2024-01-27T00:17:34;35.82;32.66;39.35;;
67300;Laerm;57658;51.436;5.980;2024-01-27T00:17:45;34.19;32.01;36.38;;
67300;Laerm;57658;51.436;5.980;2024-01-27T00:17:56;34.29;32.45;37.18;;
67300;Laerm;57658;51.436;5.980;2024-01-27T00:18:06;35.82;32.35;39.74;;
67300;Laerm;57658;51.436;5.980;2024-01-27T00:18:16;33.90;32.10;35.73;;
67300;Laerm;57658;51.436;5.980;2024-01-27T00:18:26;33.53;32.27;36.40;;
67300;Laerm;57658;51.436;5.980;2024-01-27T00:18:37;33.58;31.80;35.88;;
67300;Laerm;57658;51.436;5.980;2024-01-27T00:18:48;33.02;31.68;34.75;;
67300;Laerm;57658;51.436;5.980;2024-01-27T00:18:58;33.00;31.23;34.87;;
67300;Laerm;57658;51.436;5.980;2024-01-27T00:19:08;32.90;31.31;34.31;;
67300;Laerm;57658;51.436;5.980;2024-01-27T00:19:18;34.28;31.69;36.91;;
67300;Laerm;57658;51.436;5.980;2024-01-27T00:19:29;35.88;32.86;38.36;;
67300;Laerm;57658;51.436;5.980;2024-01-27T00:19:39;37.19;34.49;40.96;;
67300;Laerm;57658;51.436;5.980;2024-01-27T00:19:49;39.04;35.64;43.26;;
67300;Laerm;57658;51.436;5.980;2024-01-27T00:20:00;40.73;37.76;43.80;;
67300;Laerm;57658;51.436;5.980;2024-01-27T00:20:11;49.90;41.43;55.77;;
67300;Laerm;57658;51.436;5.980;2024-01-27T00:20:21;60.54;46.25;66.47;;
67300;Laerm;57658;51.436;5.980;2024-01-27T00:20:31;42.47;36.62;50.25;;
67300;Laerm;57658;51.436;5.980;2024-01-27T00:20:43;35.93;33.49;38.85;;
67300;Laerm;57658;51.436;5.980;2024-01-27T00:20:53;36.70;33.67;40.94;;
67300;Laerm;57658;51.436;5.980;2024-01-27T00:21:04;35.23;33.38;39.84;;
67300;Laerm;57658;51.436;5.980;2024-01-27T00:21:14;33.54;31.64;35.38;;
67300;Laerm;57658;51.436;5.980;2024-01-27T00:21:24;32.71;31.26;34.25;;
67300;Laerm;57658;51.436;5.980;2024-01-27T00:21:35;32.32;30.83;33.63;;
67300;Laerm;57658;51.436;5.980;2024-01-27T00:21:45;33.47;30.57;44.64;;
67300;Laerm;57658;51.436;5.980;2024-01-27T00:21:55;33.13;31.53;43.33;;
67300;Laerm;57658;51.436;5.980;2024-01-27T00:22:06;33.12;31.35;39.38;;
67300;Laerm;57658;51.436;5.980;2024-01-27T00:22:16;33.91;32.29;40.19;;
67300;Laerm;57658;51.436;5.980;2024-01-27T00:22:27;33.64;31.81;43.48;;
67300;Laerm;57658;51.436;5.980;2024-01-27T00:22:37;36.10;33.21;44.72;;
67300;Laerm;57658;51.436;5.980;2024-01-27T00:22:47;43.56;33.54;60.45;;
67300;Laerm;57658;51.436;5.980;2024-01-27T00:22:57;57.62;45.45;65.46;;
67300;Laerm;57658;51.436;5.980;2024-01-27T00:23:08;57.32;40.98;66.21;;
67300;Laerm;57658;51.436;5.980;2024-01-27T00:23:18;39.07;35.62;43.05;;
67300;Laerm;57658;51.436;5.980;2024-01-27T00:23:28;35.67;32.45;42.21;;
67300;Laerm;57658;51.436;5.980;2024-01-27T00:23:38;35.05;32.08;44.61;;
67300;Laerm;57658;51.436;5.980;2024-01-27T00:23:49;34.37;31.30;42.57;;
67300;Laerm;57658;51.436;5.980;2024-01-27T00:23:59;35.57;32.29;44.07;;
67300;Laerm;57658;51.436;5.980;2024-01-27T00:24:13;34.59;31.10;44.12;;
67300;Laerm;57658;51.436;5.980;2024-01-27T00:24:24;35.17;31.09;46.59;;
67300;Laerm;57658;51.436;5.980;2024-01-27T00:24:34;34.47;31.65;40.64;;
67300;Laerm;57658;51.436;5.980;2024-01-27T00:24:44;35.09;31.18;44.43;;
67300;Laerm;57658;51.436;5.980;2024-01-27T00:24:55;35.21;31.76;45.66;;
67300;Laerm;57658;51.436;5.980;2024-01-27T00:25:05;35.89;31.58;45.26;;
67300;Laerm;57658;51.436;5.980;2024-01-27T00:25:16;34.51;30.95;44.66;;
67300;Laerm;57658;51.436;5.980;2024-01-27T00:25:26;35.04;31.20;45.03;;
67300;Laerm;57658;51.436;5.980;2024-01-27T00:25:36;35.70;31.30;45.62;;
67300;Laerm;57658;51.436;5.980;2024-01-27T00:25:47;34.61;31.54;42.61;;
67300;Laerm;57658;51.436;5.980;2024-01-27T00:25:57;38.87;33.95;45.19;;
67300;Laerm;57658;51.436;5.980;2024-01-27T00:26:07;46.53;37.15;51.56;;
67300;Laerm;57658;51.436;5.980;2024-01-27T00:26:17;47.57;40.58;53.60;;
67300;Laerm;57658;51.436;5.980;2024-01-27T00:26:28;38.14;31.71;48.00;;
67300;Laerm;57658;51.436;5.980;2024-01-27T00:26:38;33.37;31.21;40.25;;
67300;Laerm;57658;51.436;5.980;2024-01-27T00:26:48;32.97;31.01;41.04;;
67300;Laerm;57658;51.436;5.980;2024-01-27T00:26:59;33.37;31.41;41.39;;
67300;Laerm;57658;51.436;5.980;2024-01-27T00:27:10;34.85;31.85;43.35;;
67300;Laerm;57658;51.436;5.980;2024-01-27T00:27:20;33.85;31.37;42.09;;
67300;Laerm;57658;51.436;5.980;2024-01-27T00:27:31;34.00;31.31;44.72;;
67300;Laerm;57658;51.436;5.980;2024-01-27T00:27:41;33.43;31.85;35.13;;
67300;Laerm;57658;51.436;5.980;2024-01-27T00:27:51;33.93;32.49;38.53;;
67300;Laerm;57658;51.436;5.980;2024-01-27T00:28:02;36.73;33.42;41.77;;
67300;Laerm;57658;51.436;5.980;2024-01-27T00:28:12;73.08;37.46;78.43;;
67300;Laerm;57658;51.436;5.980;2024-01-27T00:28:23;70.07;57.14;79.11;;
67300;Laerm;57658;51.436;5.980;2024-01-27T00:28:33;59.20;56.45;60.25;;
67300;Laerm;57658;51.436;5.980;2024-01-27T00:28:43;58.80;55.63;60.16;;
67300;Laerm;57658;51.436;5.980;2024-01-27T00:28:53;59.21;55.66;61.30;;
67300;Laerm;57658;51.436;5.980;2024-01-27T00:29:04;81.17;58.66;90.14;;
67300;Laerm;57658;51.436;5.980;2024-01-27T00:29:14;82.49;78.65;90.09;;
67300;Laerm;57658;51.436;5.980;2024-01-27T00:29:25;81.17;60.85;86.88;;
67300;Laerm;57658;51.436;5.980;2024-01-27T00:29:35;57.43;41.08;62.79;;
67300;Laerm;57658;51.436;5.980;2024-01-27T00:29:45;40.20;35.30;46.21;;
67300;Laerm;57658;51.436;5.980;2024-01-27T00:29:55;35.37;33.34;37.76;;
67300;Laerm;57658;51.436;5.980;2024-01-27T00:30:06;34.43;32.88;35.82;;
67300;Laerm;57658;51.436;5.980;2024-01-27T00:30:16;34.40;32.48;37.10;;
67300;Laerm;57658;51.436;5.980;2024-01-27T00:30:27;32.42;30.37;34.22;;
67300;Laerm;57658;51.436;5.980;2024-01-27T00:30:37;32.03;30.77;33.33;;
67300;Laerm;57658;51.436;5.980;2024-01-27T00:30:47;31.91;30.90;33.28;;
67300;Laerm;57658;51.436;5.980;2024-01-27T00:30:58;33.28;31.14;35.32;;
67300;Laerm;57658;51.436;5.980;2024-01-27T00:31:08;33.25;31.59;35.04;;
67300;Laerm;57658;51.436;5.980;2024-01-27T00:31:18;32.73;31.31;34.24;;
67300;Laerm;57658;51.436;5.980;2024-01-27T00:31:29;32.83;31.03;34.74;;
67300;Laerm;57658;51.436;5.980;2024-01-27T00:31:39;32.14;30.75;33.41;;
67300;Laerm;57658;51.436;5.980;2024-01-27T00:31:49;32.05;30.73;34.60;;
67300;Laerm;57658;51.436;5.980;2024-01-27T00:32:00;32.07;30.71;34.84;;
67300;Laerm;57658;51.436;5.980;2024-01-27T00:32:11;32.58;30.81;35.45;;
67300;Laerm;57658;51.436;5.980;2024-01-27T00:32:21;32.87;31.31;36.14;;
67300;Laerm;57658;51.436;5.980;2024-01-27T00:32:31;36.44;32.22;41.60;;
67300;Laerm;57658;51.436;5.980;2024-01-27T00:32:43;42.38;36.03;49.31;;
67300;Laerm;57658;51.436;5.980;2024-01-27T00:32:54;50.36;42.64;56.08;;
67300;Laerm;57658;51.436;5.980;2024-01-27T00:33:04;38.93;32.04;46.08;;
67300;Laerm;57658;51.436;5.980;2024-01-27T00:33:14;33.25;31.95;35.69;;
67300;Laerm;57658;51.436;5.980;2024-01-27T00:33:25;33.37;31.67;35.33;;
67300;Laerm;57658;51.436;5.980;2024-01-27T00:33:35;33.48;31.94;35.36;;
67300;Laerm;57658;51.436;5.980;2024-01-27T00:33:46;33.74;31.73;35.45;;
67300;Laerm;57658;51.436;5.980;2024-01-27T00:33:56;34.24;32.15;37.79;;
67300;Laerm;57658;51.436;5.980;2024-01-27T00:34:06;36.22;31.79;43.89;;
67300;Laerm;57658;51.436;5.980;2024-01-27T00:34:17;36.68;31.84;45.28;;
67300;Laerm;57658;51.436;5.980;2024-01-27T00:34:27;34.03;31.54;42.16;;
67300;Laerm;57658;51.436;5.980;2024-01-27T00:34:37;35.10;31.57;40.82;;
67300;Laerm;57658;51.436;5.980;2024-01-27T00:34:48;34.21;31.80;42.32;;
67300;Laerm;57658;51.436;5.980;2024-01-27T00:34:58;33.60;31.41;43.17;;
67300;Laerm;57658;51.436;5.980;2024-01-27T00:35:08;34.81;31.77;42.50;;
67300;Laerm;57658;51.436;5.980;2024-01-27T00:35:21;34.89;31.80;44.65;;
67300;Laerm;57658;51.436;5.980;2024-01-27T00:35:31;38.76;31.91;52.15;;
67300;Laerm;57658;51.436;5.980;2024-01-27T00:35:42;38.96;32.68;45.58;;
67300;Laerm;57658;51.436;5.980;2024-01-27T00:35:52;34.30;32.65;37.72;;
67300;Laerm;57658;51.436;5.980;2024-01-27T00:36:02;34.28;32.42;40.26;;
67300;Laerm;57658;51.436;5.980;2024-01-27T00:36:13;34.31;32.10;39.29;;
67300;Laerm;57658;51.436;5.980;2024-01-27T00:36:23;38.78;34.33;48.11;;
67300;Laerm;57658;51.436;5.980;2024-01-27T00:36:33;37.41;33.35;42.98;;
67300;Laerm;57658;51.436;5.980;2024-01-27T00:36:46;41.09;34.67;46.33;;
67300;Laerm;57658;51.436;5.980;2024-01-27T00:36:58;55.30;44.37;60.97;;
67300;Laerm;57658;51.436;5.980;2024-01-27T00:37:09;45.35;35.70;52.85;;
67300;Laerm;57658;51.436;5.980;2024-01-27T00:37:19;36.92;33.38;44.20;;
67300;Laerm;57658;51.436;5.980;2024-01-27T00:37:29;34.00;31.65;40.71;;
67300;Laerm;57658;51.436;5.980;2024-01-27T00:37:40;34.31;32.05;40.81;;
67300;Laerm;57658;51.436;5.980;2024-01-27T00:37:50;39.18;34.46;42.80;;
67300;Laerm;57658;51.436;5.980;2024-01-27T00:38:01;67.00;41.17;78.19;;
67300;Laerm;57658;51.436;5.980;2024-01-27T00:38:11;73.97;67.66;78.81;;
67300;Laerm;57658;51.436;5.980;2024-01-27T00:38:21;65.35;54.64;77.81;;
67300;Laerm;57658;51.436;5.980;2024-01-27T00:38:31;58.96;55.07;60.73;;
67300;Laerm;57658;51.436;5.980;2024-01-27T00:38:42;59.74;55.46;61.89;;
67300;Laerm;57658;51.436;5.980;2024-01-27T00:38:52;82.85;58.66;92.96;;
67300;Laerm;57658;51.436;5.980;2024-01-27T00:39:03;84.92;81.33;88.74;;
67300;Laerm;57658;51.436;5.980;2024-01-27T00:39:13;80.36;56.45;88.72;;
67300;Laerm;57658;51.436;5.980;2024-01-27T00:39:24;53.80;46.86;60.97;;
67300;Laerm;57658;51.436;5.980;2024-01-27T00:39:34;65.81;55.76;71.97;;
67300;Laerm;57658;51.436;5.980;2024-01-27T00:39:45;53.72;44.01;59.17;;
67300;Laerm;57658;51.436;5.980;2024-01-27T00:39:55;47.41;43.13;51.86;;
67300;Laerm;57658;51.436;5.980;2024-01-27T00:40:09;42.89;34.70;48.75;;
67300;Laerm;57658;51.436;5.980;2024-01-27T00:40:19;35.99;33.11;40.52;;
67300;Laerm;57658;51.436;5.980;2024-01-27T00:40:30;33.91;32.15;35.85;;
67300;Laerm;57658;51.436;5.980;2024-01-27T00:40:40;33.08;31.06;34.85;;
67300;Laerm;57658;51.436;5.980;2024-01-27T00:40:50;32.72;30.74;36.95;;
67300;Laerm;57658;51.436;5.980;2024-01-27T00:41:01;32.35;30.61;35.16;;
67300;Laerm;57658;51.436;5.980;2024-01-27T00:41:17;32.56;30.86;36.58;;
67300;Laerm;57658;51.436;5.980;2024-01-27T00:41:27;35.68;31.72;40.98;;
67300;Laerm;57658;51.436;5.980;2024-01-27T00:41:38;40.51;37.40;46.80;;
67300;Laerm;57658;51.436;5.980;2024-01-27T00:41:48;60.36;45.50;67.31;;
67300;Laerm;57658;51.436;5.980;2024-01-27T00:41:58;41.20;31.09;49.67;;
67300;Laerm;57658;51.436;5.980;2024-01-27T00:42:09;32.28;30.95;33.65;;
67300;Laerm;57658;51.436;5.980;2024-01-27T00:42:19;31.80;30.21;33.09;;
67300;Laerm;57658;51.436;5.980;2024-01-27T00:42:34;32.26;30.55;43.53;;
67300;Laerm;57658;51.436;5.980;2024-01-27T00:42:44;32.05;30.78;33.70;;
67300;Laerm;57658;51.436;5.980;2024-01-27T00:42:54;32.19;30.70;33.74;;
67300;Laerm;57658;51.436;5.980;2024-01-27T00:43:04;32.37;30.96;34.67;;
67300;Laerm;57658;51.436;5.980;2024-01-27T00:43:15;32.64;30.82;36.40;;
67300;Laerm;57658;51.436;5.980;2024-01-27T00:43:25;32.62;30.96;36.39;;
67300;Laerm;57658;51.436;5.980;2024-01-27T00:43:35;33.29;31.56;36.15;;
67300;Laerm;57658;51.436;5.980;2024-01-27T00:43:46;32.30;30.38;34.47;;
67300;Laerm;57658;51.436;5.980;2024-01-27T00:43:56;31.71;30.34;33.46;;
67300;Laerm;57658;51.436;5.980;2024-01-27T00:44:06;31.90;30.79;33.00;;
67300;Laerm;57658;51.436;5.980;2024-01-27T00:44:16;32.53;30.88;33.56;;
67300;Laerm;57658;51.436;5.980;2024-01-27T00:44:27;31.88;30.76;33.16;;
67300;Laerm;57658;51.436;5.980;2024-01-27T00:44:37;32.22;30.61;34.05;;
67300;Laerm;57658;51.436;5.980;2024-01-27T00:44:47;32.45;31.18;33.53;;
67300;Laerm;57658;51.436;5.980;2024-01-27T00:44:57;31.94;30.76;33.24;;
67300;Laerm;57658;51.436;5.980;2024-01-27T00:45:08;31.79;30.26;33.45;;
67300;Laerm;57658;51.436;5.980;2024-01-27T00:45:18;32.31;31.17;33.60;;
67300;Laerm;57658;51.436;5.980;2024-01-27T00:45:29;33.79;31.15;39.35;;
67300;Laerm;57658;51.436;5.980;2024-01-27T00:45:40;33.07;31.24;35.93;;
67300;Laerm;57658;51.436;5.980;2024-01-27T00:45:50;32.85;31.24;34.66;;
67300;Laerm;57658;51.436;5.980;2024-01-27T00:46:00;32.75;31.48;34.80;;
67300;Laerm;57658;51.436;5.980;2024-01-27T00:46:11;32.61;31.29;34.14;;
67300;Laerm;57658;51.436;5.980;2024-01-27T00:46:21;32.20;31.05;33.45;;
67300;Laerm;57658;51.436;5.980;2024-01-27T00:46:31;32.35;31.04;38.46;;
67300;Laerm;57658;51.436;5.980;2024-01-27T00:46:42;32.44;30.86;36.39;;
67300;Laerm;57658;51.436;5.980;2024-01-27T00:46:52;36.25;32.75;41.06;;
67300;Laerm;57658;51.436;5.980;2024-01-27T00:47:02;42.57;36.09;48.49;;
67300;Laerm;57658;51.436;5.980;2024-01-27T00:47:13;39.85;36.08;49.12;;
67300;Laerm;57658;51.436;5.980;2024-01-27T00:47:23;35.78;31.66;39.67;;
67300;Laerm;57658;51.436;5.980;2024-01-27T00:47:33;32.00;30.48;34.73;;
67300;Laerm;57658;51.436;5.980;2024-01-27T00:47:44;31.85;30.41;33.79;;
67300;Laerm;57658;51.436;5.980;2024-01-27T00:47:54;31.91;30.77;32.94;;
67300;Laerm;57658;51.436;5.980;2024-01-27T00:48:05;31.70;30.60;33.00;;
67300;Laerm;57658;51.436;5.980;2024-01-27T00:48:15;31.31;30.18;32.75;;
67300;Laerm;57658;51.436;5.980;2024-01-27T00:48:25;32.09;30.49;35.29;;
67300;Laerm;57658;51.436;5.980;2024-01-27T00:48:36;32.49;30.78;34.79;;
67300;Laerm;57658;51.436;5.980;2024-01-27T00:48:46;31.88;29.82;34.55;;
67300;Laerm;57658;51.436;5.980;2024-01-27T00:48:56;32.34;30.58;33.47;;
67300;Laerm;57658;51.436;5.980;2024-01-27T00:49:07;34.10;31.63;36.72;;
67300;Laerm;57658;51.436;5.980;2024-01-27T00:49:17;32.74;30.99;35.52;;
67300;Laerm;57658;51.436;5.980;2024-01-27T00:49:28;32.21;30.69;36.00;;
67300;Laerm;57658;51.436;5.980;2024-01-27T00:49:38;31.88;30.46;33.51;;
67300;Laerm;57658;51.436;5.980;2024-01-27T00:49:48;33.05;30.88;46.88;;
67300;Laerm;57658;51.436;5.980;2024-01-27T00:49:59;39.02;31.27;62.19;;
67300;Laerm;57658;51.436;5.980;2024-01-27T00:50:09;33.40;31.47;39.85;;
67300;Laerm;57658;51.436;5.980;2024-01-27T00:50:19;33.36;31.92;35.27;;
67300;Laerm;57658;51.436;5.980;2024-01-27T00:50:30;33.25;31.71;35.99;;
67300;Laerm;57658;51.436;5.980;2024-01-27T00:50:40;34.13;32.52;35.62;;
67300;Laerm;57658;51.436;5.980;2024-01-27T00:50:50;36.10;33.94;40.33;;
67300;Laerm;57658;51.436;5.980;2024-01-27T00:51:00;36.11;33.52;39.01;;
67300;Laerm;57658;51.436;5.980;2024-01-27T00:51:11;39.28;34.34;45.28;;
67300;Laerm;57658;51.436;5.980;2024-01-27T00:51:21;40.60;36.62;46.38;;
67300;Laerm;57658;51.436;5.980;2024-01-27T00:51:32;45.05;38.50;49.43;;
67300;Laerm;57658;51.436;5.980;2024-01-27T00:51:42;46.85;43.02;51.72;;
67300;Laerm;57658;51.436;5.980;2024-01-27T00:51:52;57.52;37.98;64.46;;
67300;Laerm;57658;51.436;5.980;2024-01-27T00:52:03;54.67;42.19;62.25;;
67300;Laerm;57658;51.436;5.980;2024-01-27T00:52:13;40.72;37.07;44.11;;
67300;Laerm;57658;51.436;5.980;2024-01-27T00:52:23;36.55;32.69;39.60;;
67300;Laerm;57658;51.436;5.980;2024-01-27T00:52:34;33.89;32.28;36.10;;
67300;Laerm;57658;51.436;5.980;2024-01-27T00:52:45;33.07;31.45;35.03;;
67300;Laerm;57658;51.436;5.980;2024-01-27T00:52:55;32.86;31.40;36.09;;
67300;Laerm;57658;51.436;5.980;2024-01-27T00:53:05;32.68;30.54;34.64;;
67300;Laerm;57658;51.436;5.980;2024-01-27T00:53:15;32.19;30.58;34.09;;
67300;Laerm;57658;51.436;5.980;2024-01-27T00:53:26;31.80;30.21;33.05;;
67300;Laerm;57658;51.436;5.980;2024-01-27T00:53:36;32.10;30.56;33.68;;
67300;Laerm;57658;51.436;5.980;2024-01-27T00:53:46;31.94;30.21;33.58;;
67300;Laerm;57658;51.436;5.980;2024-01-27T00:53:56;31.45;29.80;32.65;;
67300;Laerm;57658;51.436;5.980;2024-01-27T00:54:07;31.78;30.37;35.02;;
67300;Laerm;57658;51.436;5.980;2024-01-27T00:54:17;32.05;30.27;33.71;;
67300;Laerm;57658;51.436;5.980;2024-01-27T00:54:27;31.76;30.39;34.69;;
67300;Laerm;57658;51.436;5.980;2024-01-27T00:54:37;31.83;30.46;38.78;;
67300;Laerm;57658;51.436;5.980;2024-01-27T00:54:48;32.10;30.50;33.93;;
67300;Laerm;57658;51.436;5.980;2024-01-27T00:54:58;31.92;30.68;34.11;;
67300;Laerm;57658;51.436;5.980;2024-01-27T00:55:08;31.62;30.45;33.22;;
67300;Laerm;57658;51.436;5.980;2024-01-27T00:55:19;32.12;30.33;34.12;;
67300;Laerm;57658;51.436;5.980;2024-01-27T00:55:29;32.03;30.68;33.45;;
67300;Laerm;57658;51.436;5.980;2024-01-27T00:55:39;32.40;30.99;34.53;;
67300;Laerm;57658;51.436;5.980;2024-01-27T00:55:50;33.00;31.41;34.65;;
67300;Laerm;57658;51.436;5.980;2024-01-27T00:56:00;32.87;31.63;35.29;;
67300;Laerm;57658;51.436;5.980;2024-01-27T00:56:11;32.03;30.72;33.55;;
67300;Laerm;57658;51.436;5.980;2024-01-27T00:56:21;31.90;30.66;33.63;;
67300;Laerm;57658;51.436;5.980;2024-01-27T00:56:32;31.60;30.47;33.02;;
67300;Laerm;57658;51.436;5.980;2024-01-27T00:56:42;33.81;30.94;37.69;;
67300;Laerm;57658;51.436;5.980;2024-01-27T00:56:52;35.61;33.33;37.59;;
67300;Laerm;57658;51.436;5.980;2024-01-27T00:57:03;33.98;31.51;42.38;;
67300;Laerm;57658;51.436;5.980;2024-01-27T00:57:13;32.33;30.89;34.20;;
67300;Laerm;57658;51.436;5.980;2024-01-27T00:57:23;32.35;30.91;34.52;;
67300;Laerm;57658;51.436;5.980;2024-01-27T00:57:35;31.92;30.31;33.42;;
67300;Laerm;57658;51.436;5.980;2024-01-27T00:57:46;32.37;30.95;34.33;;
67300;Laerm;57658;51.436;5.980;2024-01-27T00:57:56;32.46;31.25;33.85;;
67300;Laerm;57658;51.436;5.980;2024-01-27T00:58:07;31.92;30.62;33.07;;
67300;Laerm;57658;51.436;5.980;2024-01-27T00:58:17;31.69;30.51;34.14;;
67300;Laerm;57658;51.436;5.980;2024-01-27T00:58:27;32.68;30.98;34.70;;